createdAt,value
2019-01-11T00:02:27.529Z,2.30
2019-01-11T00:04:57.385Z,2.00
2019-01-11T00:07:27.188Z,2.17
2019-01-11T00:09:57.060Z,2.03
2019-01-11T00:12:26.967Z,3.10
2019-01-11T00:14:56.753Z,2.27
2019-01-11T00:17:26.637Z,2.10
2019-01-11T00:20:03.334Z,2.07
2019-01-11T00:22:28.876Z,2.50
2019-01-11T00:24:58.648Z,2.40
2019-01-11T00:27:28.521Z,2.03
2019-01-11T00:29:58.322Z,2.20
2019-01-11T00:32:28.184Z,2.07
2019-01-11T00:34:58.003Z,2.90
2019-01-11T00:37:27.889Z,3.10
2019-01-11T00:39:57.822Z,2.73
2019-01-11T00:42:27.641Z,2.80
2019-01-11T00:44:57.519Z,2.50
2019-01-11T00:47:27.311Z,2.93
2019-01-11T00:49:57.149Z,3.07
2019-01-11T00:52:27.050Z,3.00
2019-01-11T00:54:56.914Z,3.30
2019-01-11T00:57:26.750Z,3.00
2019-01-11T00:59:56.637Z,3.70
2019-01-11T01:02:26.469Z,3.57
2019-01-11T01:04:56.389Z,3.00
2019-01-11T01:07:26.257Z,3.50
2019-01-11T01:09:56.148Z,3.63
2019-01-11T01:12:26.008Z,3.53
2019-01-11T01:14:55.834Z,3.60
2019-01-11T01:17:25.779Z,3.10
2019-01-11T01:19:55.609Z,2.90
2019-01-11T01:22:25.496Z,2.80
2019-01-11T01:24:55.453Z,3.27
2019-01-11T01:27:25.315Z,3.10
2019-01-11T01:29:55.165Z,2.77
2019-01-11T01:32:25.081Z,3.17
2019-01-11T01:34:55.024Z,2.97
2019-01-11T01:37:24.898Z,3.20
2019-01-11T01:39:54.710Z,2.33
2019-01-11T01:42:24.732Z,2.80
2019-01-11T01:44:54.565Z,2.50
2019-01-11T01:47:24.552Z,2.53
2019-01-11T01:49:54.366Z,2.23
2019-01-11T01:52:24.221Z,2.67
2019-01-11T01:54:54.073Z,2.10
2019-01-11T01:57:23.895Z,2.43
2019-01-11T01:59:53.759Z,1.90
2019-01-11T02:02:23.517Z,1.77
2019-01-11T02:04:53.445Z,1.80
2019-01-11T02:07:23.256Z,1.37
2019-01-11T02:09:53.181Z,1.70
2019-01-11T02:12:22.998Z,1.30
2019-01-11T02:14:52.873Z,1.70
2019-01-11T02:17:22.690Z,1.53
2019-01-11T02:19:52.641Z,1.40
2019-01-11T02:22:22.477Z,1.80
2019-01-11T02:24:52.304Z,1.60
2019-01-11T02:27:22.216Z,1.53
2019-01-11T02:29:52.025Z,1.70
2019-01-11T02:32:21.861Z,1.80
2019-01-11T02:34:51.669Z,1.83
2019-01-11T02:37:21.541Z,2.10
2019-01-11T02:39:51.356Z,2.20
2019-01-11T02:42:21.165Z,2.10
2019-01-11T02:44:51.049Z,1.93
2019-01-11T02:47:20.922Z,1.77
2019-01-11T02:49:50.724Z,2.20
2019-01-11T02:52:20.605Z,2.20
2019-01-11T02:54:50.501Z,1.80
2019-01-11T02:57:20.341Z,1.57
2019-01-11T02:59:50.209Z,2.10
2019-01-11T03:02:20.050Z,2.03
2019-01-11T03:04:49.988Z,2.10
2019-01-11T03:07:19.827Z,2.33
2019-01-11T03:09:49.729Z,2.33
2019-01-11T03:12:19.515Z,2.20
2019-01-11T03:14:49.497Z,2.20
2019-01-11T03:17:19.298Z,2.43
2019-01-11T03:19:49.125Z,2.53
2019-01-11T03:22:18.939Z,2.73
2019-01-11T03:24:48.801Z,2.70
2019-01-11T03:27:18.618Z,2.43
2019-01-11T03:29:48.380Z,2.30
2019-01-11T03:32:18.224Z,2.57
2019-01-11T03:35:07.275Z,1.90
2019-01-11T03:37:37.248Z,2.90
2019-01-11T03:40:08.424Z,2.60
2019-01-11T03:42:38.381Z,2.50
2019-01-11T03:45:10.055Z,2.87
2019-01-11T03:47:39.946Z,2.20
2019-01-11T03:50:10.510Z,2.60
2019-01-11T03:52:40.313Z,2.50
2019-01-11T03:55:12.019Z,3.00
2019-01-11T03:57:42.061Z,2.57
2019-01-11T04:00:17.540Z,2.00
2019-01-11T04:02:47.639Z,1.90
2019-01-11T04:05:17.651Z,2.20
2019-01-11T04:07:47.509Z,2.00
2019-01-11T04:10:22.320Z,2.30
2019-01-11T04:12:52.269Z,2.40
2019-01-11T04:15:23.040Z,2.40
2019-01-11T04:18:10.974Z,2.50
2019-01-11T04:20:40.874Z,3.00
2019-01-11T04:23:10.719Z,3.00
2019-01-11T04:25:45.272Z,3.20
2019-01-11T04:28:15.123Z,3.30
2019-01-11T04:30:45.094Z,2.40
2019-01-11T04:33:14.941Z,3.43
2019-01-11T04:35:44.882Z,3.40
2019-01-11T04:38:14.878Z,2.60
2019-01-11T04:40:44.774Z,2.87
2019-01-11T04:43:14.546Z,2.63
2019-01-11T04:45:44.362Z,3.60
2019-01-11T04:48:14.239Z,3.90
2019-01-11T04:50:44.093Z,3.00
2019-01-11T04:53:14.003Z,3.50
2019-01-11T04:55:43.893Z,2.97
2019-01-11T04:58:13.748Z,2.90
2019-01-11T05:00:43.574Z,3.40
2019-01-11T05:03:13.481Z,3.50
2019-01-11T05:05:43.726Z,3.67
2019-01-11T05:08:13.576Z,3.60
2019-01-11T05:10:43.421Z,3.90
2019-01-11T05:13:30.678Z,3.80
2019-01-11T05:16:00.491Z,4.10
2019-01-11T05:18:30.428Z,4.30
2019-01-11T05:21:00.266Z,3.80
2019-01-11T05:23:30.119Z,3.80
2019-01-11T05:25:59.909Z,3.87
2019-01-11T05:28:29.771Z,4.23
2019-01-11T05:31:00.209Z,3.90
2019-01-11T05:33:30.190Z,4.13
2019-01-11T05:36:00.038Z,3.60
2019-01-11T05:38:29.904Z,4.43
2019-01-11T05:41:00.079Z,4.13
2019-01-11T05:43:29.898Z,4.13
2019-01-11T05:45:59.747Z,4.33
2019-01-11T05:48:29.554Z,4.07
2019-01-11T05:50:59.377Z,5.27
2019-01-11T05:53:29.149Z,4.13
2019-01-11T05:56:00.953Z,4.70
2019-01-11T05:58:32.750Z,5.40
2019-01-11T06:01:02.897Z,4.30
2019-01-11T06:03:32.830Z,5.07
2019-01-11T06:06:02.809Z,4.63
2019-01-11T06:08:33.594Z,4.87
2019-01-11T06:11:03.494Z,4.23
2019-01-11T06:13:33.276Z,4.80
2019-01-11T06:16:03.258Z,4.53
2019-01-11T06:18:33.137Z,5.17
2019-01-11T06:21:03.275Z,4.33
2019-01-11T06:23:33.078Z,5.23
2019-01-11T06:26:03.051Z,4.70
2019-01-11T06:28:32.878Z,5.07
2019-01-11T06:31:02.684Z,5.40
2019-01-11T06:33:32.658Z,5.00
2019-01-11T06:36:02.547Z,5.03
2019-01-11T06:38:32.431Z,4.80
2019-01-11T06:41:02.250Z,5.20
2019-01-11T06:43:32.106Z,5.13
2019-01-11T06:46:01.989Z,5.10
2019-01-11T06:48:47.109Z,5.10
2019-01-11T06:51:16.952Z,5.40
2019-01-11T06:53:46.790Z,5.47
2019-01-11T06:56:16.791Z,5.40
2019-01-11T06:58:48.303Z,6.50
2019-01-11T07:01:18.602Z,5.90
2019-01-11T07:03:48.501Z,6.60
2019-01-11T07:06:18.406Z,7.00
2019-01-11T07:08:48.287Z,6.00
2019-01-11T07:11:18.515Z,6.60
2019-01-11T07:13:48.362Z,6.20
2019-01-11T07:16:18.266Z,6.13
2019-01-11T07:18:48.121Z,6.80
2019-01-11T07:21:18.165Z,5.33
2019-01-11T07:23:48.004Z,5.60
2019-01-11T07:26:17.872Z,4.77
2019-01-11T07:28:47.658Z,5.30
2019-01-11T07:31:21.524Z,5.03
2019-01-11T07:33:52.090Z,5.13
2019-01-11T07:36:46.652Z,5.10
2019-01-11T07:39:35.990Z,4.80
2019-01-11T07:42:06.027Z,4.60
2019-01-11T07:44:35.889Z,4.23
2019-01-11T07:47:05.944Z,4.60
2019-01-11T07:49:35.862Z,4.33
2019-01-11T07:52:05.939Z,4.13
2019-01-11T07:54:35.797Z,4.30
2019-01-11T07:57:05.764Z,4.27
2019-01-11T07:59:35.589Z,3.97
2019-01-11T08:02:06.041Z,4.23
2019-01-11T08:04:35.993Z,4.80
2019-01-11T08:07:06.025Z,3.80
2019-01-11T08:09:35.902Z,3.80
2019-01-11T08:12:05.831Z,3.37
2019-01-11T08:14:35.653Z,3.70
2019-01-11T08:17:05.722Z,4.30
2019-01-11T08:19:35.635Z,3.63
2019-01-11T08:22:07.254Z,3.50
2019-01-11T08:24:37.637Z,3.90
2019-01-11T08:27:07.469Z,3.53
2019-01-11T08:29:37.335Z,3.50
2019-01-11T08:32:07.203Z,3.23
2019-01-11T08:34:37.140Z,2.70
2019-01-11T08:37:06.944Z,3.27
2019-01-11T08:39:36.857Z,3.10
2019-01-11T08:42:06.666Z,2.20
2019-01-11T08:44:36.591Z,3.00
2019-01-11T08:47:06.500Z,3.00
2019-01-11T08:49:36.399Z,3.10
2019-01-11T08:52:06.326Z,2.87
2019-01-11T08:54:36.078Z,3.00
2019-01-11T08:57:06.016Z,2.47
2019-01-11T08:59:35.933Z,2.53
2019-01-11T09:02:05.906Z,2.77
2019-01-11T09:04:37.149Z,2.73
2019-01-11T09:07:06.935Z,2.77
2019-01-11T09:09:36.754Z,2.97
2019-01-11T09:12:06.656Z,3.20
2019-01-11T09:14:49.779Z,2.60
2019-01-11T09:17:20.290Z,2.63
2019-01-11T09:19:50.123Z,2.70
2019-01-11T09:22:20.105Z,2.50
2019-01-11T09:24:49.971Z,2.67
2019-01-11T09:27:19.830Z,2.70
2019-01-11T09:29:50.225Z,2.53
2019-01-11T09:32:20.559Z,2.37
2019-01-11T09:37:46.845Z,2.30
2019-01-11T09:40:28.421Z,2.60
2019-01-11T09:43:10.096Z,2.90
2019-01-11T09:45:40.276Z,3.00
2019-01-11T09:48:10.185Z,3.20
2019-01-11T09:50:59.497Z,3.07
2019-01-11T09:53:48.534Z,2.57
2019-01-11T09:56:38.023Z,2.90
2019-01-11T09:59:26.916Z,3.40
2019-01-11T10:02:28.664Z,3.10
2019-01-11T10:05:07.171Z,3.50
2019-01-11T10:07:56.001Z,3.20
2019-01-11T10:10:44.839Z,3.70
2019-01-11T10:16:43.122Z,3.90
2019-01-11T10:19:32.231Z,4.00
2019-01-11T10:22:02.205Z,4.23
2019-01-11T10:24:51.058Z,3.90
2019-01-11T10:27:21.050Z,4.00
2019-01-11T10:30:11.685Z,3.73
2019-01-11T10:33:00.523Z,3.70
2019-01-11T10:35:42.004Z,3.53
2019-01-11T10:38:25.990Z,4.30
2019-01-11T10:41:07.102Z,4.53
2019-01-11T10:43:37.065Z,4.73
2019-01-11T10:46:48.964Z,5.03
2019-01-11T10:49:35.155Z,5.67
2019-01-11T10:52:24.180Z,5.40
2019-01-11T10:55:13.742Z,5.70
2019-01-11T10:58:02.891Z,4.47
2019-01-11T11:00:52.017Z,5.23
2019-01-11T11:03:40.903Z,5.23
2019-01-11T11:06:30.005Z,5.00
2019-01-11T11:09:18.871Z,5.33
2019-01-11T11:12:07.950Z,5.70
2019-01-11T11:14:56.037Z,4.73
2019-01-11T11:17:45.280Z,5.23
2019-01-11T11:20:34.257Z,5.10
2019-01-11T11:23:23.254Z,4.83
2019-01-11T11:26:12.330Z,5.83
2019-01-11T11:29:01.122Z,5.30
2019-01-11T11:31:49.147Z,4.67
2019-01-11T11:37:27.705Z,5.10
2019-01-11T11:40:09.182Z,4.40
2019-01-11T11:42:50.650Z,5.03
2019-01-11T11:45:31.918Z,5.43
2019-01-11T11:48:13.599Z,4.63
2019-01-11T11:50:55.285Z,6.03
2019-01-11T11:53:36.930Z,5.53
2019-01-11T11:56:06.928Z,5.70
2019-01-11T11:58:55.812Z,5.40
2019-01-11T12:01:46.720Z,5.33
2019-01-11T12:04:35.231Z,4.53
2019-01-11T12:07:24.090Z,5.70
2019-01-11T12:10:13.738Z,5.60
2019-01-11T12:13:02.814Z,6.00
2019-01-11T12:15:51.702Z,5.80
2019-01-11T12:18:40.474Z,5.70
2019-01-11T12:21:29.326Z,5.23
2019-01-11T12:24:18.200Z,4.77
2019-01-11T12:27:07.067Z,5.57
2019-01-11T12:29:55.885Z,5.70
2019-01-11T12:32:44.717Z,5.47
2019-01-11T12:35:33.527Z,6.10
2019-01-11T12:38:14.754Z,4.63
2019-01-11T12:40:56.186Z,4.70
2019-01-11T12:43:37.967Z,5.13
2019-01-11T12:46:19.744Z,5.90
2019-01-11T12:49:01.103Z,5.73
2019-01-11T12:51:42.754Z,5.70
2019-01-11T12:54:24.463Z,5.10
2019-01-11T12:57:05.975Z,6.17
2019-01-11T12:59:47.704Z,5.57
2019-01-11T13:02:29.565Z,6.20
2019-01-11T13:05:10.704Z,6.67
2019-01-11T13:07:52.267Z,6.63
2019-01-11T13:10:34.063Z,6.23
2019-01-11T13:13:15.076Z,7.10
2019-01-11T13:15:56.845Z,6.73
2019-01-11T13:18:38.297Z,6.23
2019-01-11T13:21:19.443Z,6.47
2019-01-11T13:24:00.957Z,5.73
2019-01-11T13:26:30.915Z,5.70
2019-01-11T13:29:19.919Z,5.90
2019-01-11T13:32:01.358Z,5.40
2019-01-11T13:34:42.998Z,6.77
2019-01-11T13:37:23.853Z,7.67
2019-01-11T13:40:06.187Z,6.10
2019-01-11T13:42:47.416Z,7.10
2019-01-11T13:45:28.681Z,6.20
2019-01-11T13:48:09.541Z,6.90
2019-01-11T13:50:51.002Z,6.50
2019-01-11T13:53:32.232Z,8.10
2019-01-11T13:56:14.042Z,7.13
2019-01-11T14:01:41.559Z,7.70
2019-01-11T14:04:30.457Z,16.90
2019-01-11T14:07:19.303Z,35.80
2019-01-11T14:10:08.207Z,9.37
2019-01-11T14:12:57.079Z,8.93
2019-01-11T14:15:45.857Z,8.00
2019-01-11T14:18:34.795Z,11.00
2019-01-11T14:21:23.618Z,12.00
2019-01-11T14:24:12.577Z,8.10
2019-01-11T14:27:01.537Z,8.70
2019-01-11T14:29:50.356Z,9.03
2019-01-11T14:32:39.323Z,8.13
2019-01-11T14:35:28.252Z,8.33
2019-01-11T14:38:17.085Z,10.13
2019-01-11T14:41:06.118Z,7.40
2019-01-11T14:43:54.995Z,11.10
2019-01-11T14:46:24.950Z,10.50
2019-01-11T14:49:13.786Z,7.57
2019-01-11T14:52:02.605Z,10.87
2019-01-11T14:54:51.543Z,7.87
2019-01-11T14:57:21.502Z,7.03
2019-01-11T14:59:51.391Z,6.47
2019-01-11T15:02:40.387Z,7.27
2019-01-11T15:05:29.445Z,7.17
2019-01-11T15:08:18.299Z,7.57
2019-01-11T15:10:48.200Z,8.70
2019-01-11T15:13:37.199Z,7.70
2019-01-11T15:16:26.016Z,9.50
2019-01-11T15:19:15.727Z,8.40
2019-01-11T15:22:06.028Z,8.00
2019-01-11T15:24:55.945Z,7.80
2019-01-11T15:27:37.200Z,8.53
2019-01-11T15:30:18.858Z,8.50
2019-01-11T15:33:00.496Z,8.30
2019-01-11T15:35:41.336Z,9.10
2019-01-11T15:38:22.911Z,9.13
2019-01-11T15:41:04.077Z,9.57
2019-01-11T15:43:45.393Z,13.40
2019-01-11T15:46:25.345Z,57.27
2019-01-11T15:49:14.647Z,15.50
2019-01-11T15:52:03.502Z,12.00
2019-01-11T15:54:33.374Z,9.00
2019-01-11T15:57:41.901Z,8.87
2019-01-11T16:00:30.744Z,9.87
2019-01-11T16:03:19.758Z,10.00
2019-01-11T16:06:27.560Z,9.20
2019-01-11T16:12:50.691Z,10.40
2019-01-11T16:15:58.478Z,11.40
2019-01-11T16:18:48.039Z,10.37
2019-01-11T16:21:18.042Z,11.87
2019-01-11T16:24:07.107Z,10.83
2019-01-11T16:26:48.436Z,12.80
2019-01-11T16:29:29.515Z,11.40
2019-01-11T16:32:10.725Z,13.70
2019-01-11T16:34:40.752Z,11.70
2019-01-11T16:37:29.596Z,11.80
2019-01-11T16:40:18.582Z,12.40
2019-01-11T16:42:48.349Z,12.30
2019-01-11T16:45:56.102Z,12.00
2019-01-11T16:48:44.937Z,15.90
2019-01-11T16:51:33.796Z,14.90
2019-01-11T16:54:22.690Z,13.70
2019-01-11T16:57:11.503Z,13.23
2019-01-11T17:00:00.343Z,12.53
2019-01-11T17:02:49.123Z,11.97
2019-01-11T17:05:19.093Z,12.63
2019-01-11T17:08:07.949Z,11.83
2019-01-11T17:10:56.829Z,12.80
2019-01-11T17:13:45.669Z,11.50
2019-01-11T17:16:34.550Z,14.47
2019-01-11T17:19:23.358Z,12.43
2019-01-11T17:22:12.175Z,11.87
2019-01-11T17:25:00.969Z,11.37
2019-01-11T17:27:42.650Z,11.43
2019-01-11T17:30:24.230Z,11.10
2019-01-11T17:33:05.818Z,10.77
2019-01-11T17:35:47.451Z,9.27
2019-01-11T17:38:29.032Z,10.13
2019-01-11T17:41:10.327Z,11.50
2019-01-11T17:43:52.151Z,10.53
2019-01-11T17:46:33.330Z,9.80
2019-01-11T17:49:14.568Z,11.33
2019-01-11T17:51:56.209Z,10.27
2019-01-11T17:54:37.545Z,10.97
2019-01-11T17:57:18.726Z,11.17
2019-01-11T18:00:00.467Z,10.70
2019-01-11T18:02:41.401Z,14.27
2019-01-11T18:05:31.983Z,9.23
2019-01-11T18:08:20.754Z,9.47
2019-01-11T18:11:09.656Z,9.63
2019-01-11T18:13:58.400Z,8.97
2019-01-11T18:16:47.163Z,8.90
2019-01-11T18:19:36.018Z,9.33
2019-01-11T18:22:05.901Z,8.10
2019-01-11T18:24:54.724Z,7.70
2019-01-11T18:27:36.061Z,6.93
2019-01-11T18:30:17.521Z,7.03
2019-01-11T18:32:58.466Z,5.70
2019-01-11T18:35:40.008Z,6.90
2019-01-11T18:38:21.442Z,7.27
2019-01-11T18:41:03.306Z,5.67
2019-01-11T18:43:45.069Z,20.00
2019-01-11T18:46:26.155Z,24.40
2019-01-11T18:49:07.396Z,15.00
2019-01-11T18:51:49.465Z,9.07
2019-01-11T18:54:30.948Z,9.90
2019-01-11T18:57:01.117Z,10.17
2019-01-11T18:59:50.091Z,7.00
2019-01-11T19:02:39.254Z,7.13
2019-01-11T19:05:28.541Z,7.10
2019-01-11T19:08:17.598Z,7.40
2019-01-11T19:11:06.505Z,6.90
2019-01-11T19:13:55.793Z,7.30
2019-01-11T19:16:45.071Z,7.03
2019-01-11T19:19:36.476Z,6.60
2019-01-11T19:22:25.613Z,6.60
2019-01-11T19:24:57.569Z,5.63
2019-01-11T19:27:47.156Z,6.30
2019-01-11T19:30:28.987Z,6.40
2019-01-11T19:33:11.299Z,7.70
2019-01-11T19:35:52.546Z,5.33
2019-01-11T19:38:23.050Z,6.60
2019-01-11T19:41:40.080Z,13.63
2019-01-11T19:44:29.102Z,9.57
2019-01-11T19:47:18.349Z,18.87
2019-01-11T19:50:09.125Z,9.90
2019-01-11T19:52:39.336Z,5.90
2019-01-11T19:55:28.617Z,5.93
2019-01-11T19:58:17.646Z,6.93
2019-01-11T20:01:06.760Z,8.07
2019-01-11T20:03:56.393Z,5.70
2019-01-11T20:06:46.006Z,6.40
2019-01-11T20:09:36.618Z,6.67
2019-01-11T20:12:25.529Z,5.20
2019-01-11T20:15:15.018Z,5.60
2019-01-11T20:18:24.482Z,5.97
2019-01-11T20:21:13.614Z,5.40
2019-01-11T20:24:02.676Z,6.37
2019-01-11T20:26:52.416Z,6.10
2019-01-11T20:29:41.249Z,6.27
2019-01-11T20:32:22.842Z,6.20
2019-01-11T20:35:04.136Z,5.83
2019-01-11T20:37:45.282Z,6.47
2019-01-11T20:40:27.093Z,6.63
2019-01-11T20:43:09.507Z,6.90
2019-01-11T20:45:51.208Z,7.13
2019-01-11T20:48:21.435Z,7.80
2019-01-11T20:50:51.589Z,6.80
2019-01-11T20:53:41.730Z,7.77
2019-01-11T20:56:32.003Z,7.30
2019-01-11T20:59:21.347Z,7.50
2019-01-11T21:02:10.542Z,7.60
2019-01-11T21:04:59.750Z,7.40
2019-01-11T21:07:48.769Z,7.70
2019-01-11T21:10:37.742Z,8.10
2019-01-11T21:13:26.918Z,8.20
2019-01-11T21:16:16.259Z,8.07
2019-01-11T21:19:05.789Z,8.33
2019-01-11T21:21:55.019Z,7.70
2019-01-11T21:24:44.044Z,8.10
2019-01-11T21:27:33.249Z,8.27
2019-01-11T21:30:15.213Z,8.73
2019-01-11T21:32:56.655Z,8.30
2019-01-11T21:35:38.283Z,8.33
2019-01-11T21:38:19.868Z,8.07
2019-01-11T21:41:01.599Z,7.67
2019-01-11T21:43:31.727Z,7.80
2019-01-11T21:46:20.932Z,8.40
2019-01-11T21:49:09.938Z,8.70
2019-01-11T21:51:58.917Z,8.03
2019-01-11T21:54:47.929Z,7.97
2019-01-11T21:57:37.348Z,7.97
2019-01-11T22:00:31.389Z,9.20
2019-01-11T22:03:14.203Z,7.83
2019-01-11T22:05:52.412Z,8.07
2019-01-11T22:08:41.491Z,8.27
2019-01-11T22:11:30.504Z,8.07
2019-01-11T22:14:19.401Z,7.07
2019-01-11T22:17:08.579Z,7.70
2019-01-11T22:19:57.396Z,7.50
2019-01-11T22:22:27.430Z,7.57
2019-01-11T22:25:36.587Z,7.90
2019-01-11T22:28:25.637Z,8.43
2019-01-11T22:31:07.508Z,8.70
2019-01-11T22:33:49.037Z,8.67
2019-01-11T22:36:30.530Z,8.33
2019-01-11T22:39:00.358Z,8.57
2019-01-11T22:41:30.508Z,8.43
2019-01-11T22:44:19.269Z,7.80
2019-01-11T22:47:08.096Z,8.50
2019-01-11T22:49:56.832Z,8.40
2019-01-11T22:52:45.594Z,8.63
2019-01-11T22:55:34.365Z,8.90
2019-01-11T22:58:23.433Z,8.40
2019-01-11T23:01:31.423Z,8.20
2019-01-11T23:04:21.454Z,8.27
2019-01-11T23:07:14.533Z,8.33
2019-01-11T23:10:22.419Z,8.57
2019-01-11T23:13:15.098Z,9.20
2019-01-11T23:16:09.777Z,9.30
2019-01-11T23:18:58.885Z,8.90
2019-01-11T23:21:48.072Z,10.10
2019-01-11T23:24:37.378Z,8.80
2019-01-11T23:27:26.497Z,9.43
2019-01-11T23:30:16.998Z,9.30
2019-01-11T23:33:06.058Z,9.27
2019-01-11T23:35:55.202Z,10.23
2019-01-11T23:38:52.748Z,9.87
2019-01-11T23:41:41.905Z,10.00
2019-01-11T23:44:33.868Z,9.50
2019-01-11T23:47:23.376Z,9.30
2019-01-11T23:50:13.881Z,9.13
2019-01-11T23:53:02.972Z,10.70
2019-01-11T23:55:51.946Z,10.20
2019-01-11T23:58:41.251Z,9.47
